Time;durP1;ratioP1;P1;durP2;ratioP2;P2;SDS_P1;SDS_P2;PMS_P1;PMS_P2;Temp;Humidity;BMP_temperature;BMP_pressure;BME280_temperature;BME280_humidity;BME280_pressure;Samples;Min_cycle;Max_cycle;Signal;HPM_P1;HPM_P2
2023/11/11 00:02:16;;;;;;;4.07;1.38;;;;;;;20.24;63.91;100016.66;5045717;28;20064;-40
2023/11/11 00:04:42;;;;;;;2.90;1.13;;;;;;;20.22;64.33;100027.16;5045410;28;20217;-40
2023/11/11 00:07:07;;;;;;;3.28;0.90;;;;;;;20.20;64.19;100020.03;5052681;28;20548;-40
2023/11/11 00:09:32;;;;;;;2.03;1.30;;;;;;;20.18;64.25;100025.03;5039733;28;20062;-40
2023/11/11 00:11:58;;;;;;;2.70;1.10;;;;;;;20.17;63.90;100028.91;5040892;28;20572;-40
2023/11/11 00:14:24;;;;;;;3.17;1.00;;;;;;;20.14;64.11;100028.72;5052809;28;20136;-41
2023/11/11 00:16:50;;;;;;;3.78;1.10;;;;;;;20.11;64.52;100021.91;5053407;28;20024;-40
2023/11/11 00:19:17;;;;;;;4.32;1.00;;;;;;;20.10;64.38;100019.44;5026633;28;20041;-40
2023/11/11 00:21:48;;;;;;;2.13;1.30;;;;;;;20.07;64.20;100022.84;5041353;28;20029;-40
2023/11/11 00:24:14;;;;;;;1.50;1.05;;;;;;;20.05;64.70;100039.66;5044995;28;20032;-40
2023/11/11 00:26:40;;;;;;;2.90;1.25;;;;;;;20.04;64.64;100049.03;5042525;28;20029;-40
2023/11/11 00:29:07;;;;;;;4.13;1.20;;;;;;;20.01;64.40;100055.13;5046790;28;20044;-41
2023/11/11 00:31:33;;;;;;;2.03;1.10;;;;;;;19.99;64.49;100047.19;5047355;28;20025;-39
2023/11/11 00:33:59;;;;;;;2.05;1.33;;;;;;;19.97;64.64;100049.44;5040578;28;20354;-39
2023/11/11 00:36:25;;;;;;;1.48;1.00;;;;;;;19.96;64.79;100041.50;5028143;28;20079;-41
2023/11/11 00:38:51;;;;;;;3.38;1.00;;;;;;;19.95;64.78;100039.88;5033593;28;20108;-40
2023/11/11 00:41:16;;;;;;;1.77;0.98;;;;;;;19.93;64.79;100045.69;5056488;28;20170;-41
2023/11/11 00:43:42;;;;;;;6.60;1.48;;;;;;;19.94;64.89;100051.97;5053190;28;20495;-42
2023/11/11 00:46:07;;;;;;;10.52;1.58;;;;;;;20.00;65.49;100054.31;5051249;28;20043;-44
2023/11/11 00:48:33;;;;;;;4.13;1.08;;;;;;;20.09;65.35;100062.66;5036076;28;20029;-45
2023/11/11 00:50:58;;;;;;;4.57;1.20;;;;;;;20.17;65.38;100072.94;5053066;28;20044;-45
2023/11/11 00:53:24;;;;;;;2.80;1.00;;;;;;;20.26;65.26;100070.25;5041348;28;20324;-45
2023/11/11 00:55:49;;;;;;;5.00;1.10;;;;;;;20.32;65.63;100077.25;5025550;28;20076;-43
2023/11/11 00:58:15;;;;;;;5.43;1.05;;;;;;;20.39;65.47;100081.50;5057743;28;20045;-41
2023/11/11 01:00:42;;;;;;;4.40;1.30;;;;;;;20.45;65.24;100077.53;5039972;28;20052;-40
2023/11/11 01:03:08;;;;;;;6.10;1.33;;;;;;;20.48;65.04;100080.47;5030899;28;20033;-42
2023/11/11 01:05:34;;;;;;;9.68;1.70;;;;;;;20.47;65.08;100073.31;5043731;28;20494;-43
2023/11/11 01:08:00;;;;;;;12.43;1.33;;;;;;;20.45;64.92;100072.00;5073478;28;20104;-37
2023/11/11 01:10:26;;;;;;;8.15;1.85;;;;;;;20.38;64.66;100058.69;5050082;28;20440;-37
2023/11/11 01:12:52;;;;;;;7.53;1.75;;;;;;;20.33;64.81;100058.81;5046768;28;20038;-37
2023/11/11 01:15:18;;;;;;;5.60;1.15;;;;;;;20.29;64.66;100060.56;5043990;28;20026;-43
2023/11/11 01:17:43;;;;;;;3.80;1.20;;;;;;;20.24;64.83;100064.22;5091692;28;20067;-38
2023/11/11 01:20:09;;;;;;;3.58;1.10;;;;;;;20.19;64.47;100067.91;5061380;28;20460;-37
2023/11/11 01:22:35;;;;;;;3.92;1.33;;;;;;;20.16;64.88;100065.00;5060054;28;20025;-37
2023/11/11 01:25:01;;;;;;;3.08;1.17;;;;;;;20.13;64.43;100065.59;5053110;28;20025;-37
2023/11/11 01:27:27;;;;;;;4.15;1.33;;;;;;;20.09;64.65;100073.66;5050342;28;20036;-37
2023/11/11 01:29:53;;;;;;;2.78;1.00;;;;;;;20.07;64.63;100066.84;5046331;28;20014;-37
2023/11/11 01:32:19;;;;;;;5.03;1.33;;;;;;;20.01;64.58;100066.97;5057604;28;20028;-43
2023/11/11 01:34:44;;;;;;;2.40;1.10;;;;;;;19.99;64.81;100066.44;5061873;28;20040;-44
2023/11/11 01:37:09;;;;;;;4.38;1.30;;;;;;;19.96;64.54;100067.09;5049975;28;20057;-43
2023/11/11 01:39:35;;;;;;;2.80;1.00;;;;;;;19.95;64.79;100065.44;5063739;28;20056;-43
2023/11/11 01:42:01;;;;;;;3.38;1.23;;;;;;;19.93;64.76;100067.69;5056767;28;20477;-43
2023/11/11 01:44:26;;;;;;;2.30;1.10;;;;;;;19.91;64.84;100066.38;5056462;28;20036;-37
2023/11/11 01:46:52;;;;;;;1.58;1.00;;;;;;;19.88;64.61;100065.06;5055416;28;20021;-36
2023/11/11 01:49:18;;;;;;;1.77;0.90;;;;;;;19.86;64.83;100068.13;5052601;28;20029;-37
2023/11/11 01:51:44;;;;;;;3.83;1.00;;;;;;;19.85;64.74;100069.22;5035024;28;20405;-42
2023/11/11 01:54:11;;;;;;;1.48;0.88;;;;;;;19.84;64.97;100072.28;5038460;28;20353;-43
2023/11/11 01:56:37;;;;;;;3.17;1.13;;;;;;;19.82;64.77;100075.31;5053495;28;20045;-43
2023/11/11 01:59:03;;;;;;;2.47;0.98;;;;;;;19.80;64.64;100072.03;5065403;28;20028;-43
2023/11/11 02:01:28;;;;;;;4.10;1.20;;;;;;;19.79;65.14;100072.34;5059789;28;20025;-42
2023/11/11 02:03:54;;;;;;;2.25;0.90;;;;;;;19.78;64.83;100076.22;5054392;28;20043;-42
2023/11/11 02:06:19;;;;;;;2.53;1.25;;;;;;;19.76;64.74;100084.78;5048143;28;20020;-43
2023/11/11 02:08:45;;;;;;;2.30;1.08;;;;;;;19.75;64.72;100093.34;5059193;28;20031;-44
2023/11/11 02:11:10;;;;;;;2.72;1.20;;;;;;;19.73;64.90;100093.66;5062121;28;20146;-42
2023/11/11 02:13:37;;;;;;;4.90;1.30;;;;;;;19.73;64.86;100093.66;5050096;28;20122;-42
2023/11/11 02:16:04;;;;;;;1.95;1.00;;;;;;;19.71;65.08;100095.88;5040001;28;20520;-42
2023/11/11 02:18:29;;;;;;;2.35;1.10;;;;;;;19.71;65.07;100095.88;5064183;28;20028;-43
2023/11/11 02:20:54;;;;;;;1.58;1.10;;;;;;;19.71;64.89;100098.63;5058744;28;20028;-37
2023/11/11 02:23:20;;;;;;;2.78;0.80;;;;;;;19.70;65.18;100105.25;5047046;28;20064;-35
2023/11/11 02:25:46;;;;;;;2.45;1.20;;;;;;;19.68;64.93;100100.06;5043546;28;20027;-36
2023/11/11 02:28:11;;;;;;;4.50;1.20;;;;;;;19.67;65.11;100103.94;5047274;28;20033;-37
2023/11/11 02:30:36;;;;;;;4.03;1.30;;;;;;;19.66;65.05;100115.25;5037505;28;20037;-38
2023/11/11 02:33:02;;;;;;;2.75;1.20;;;;;;;19.65;64.81;100108.91;5034781;28;21050;-35
2023/11/11 02:35:27;;;;;;;1.85;1.17;;;;;;;19.63;64.82;100116.66;5042832;28;20083;-35
2023/11/11 02:37:53;;;;;;;1.77;1.00;;;;;;;19.62;65.28;100112.28;5029779;28;20018;-37
2023/11/11 02:40:18;;;;;;;2.08;1.00;;;;;;;19.61;65.30;100107.06;5064376;28;20103;-36
2023/11/11 02:42:43;;;;;;;1.90;1.02;;;;;;;19.61;65.13;100107.91;5032497;28;20470;-42
2023/11/11 02:45:10;;;;;;;3.20;1.10;;;;;;;19.62;65.08;100108.72;5040380;28;20094;-43
2023/11/11 02:47:36;;;;;;;3.75;1.30;;;;;;;19.62;65.34;100105.97;5031611;28;20037;-42
2023/11/11 02:50:02;;;;;;;2.97;1.30;;;;;;;19.60;65.08;100120.00;5036276;28;20028;-44
2023/11/11 02:52:28;;;;;;;2.65;1.25;;;;;;;19.60;65.26;100116.47;5047702;28;20385;-43
2023/11/11 02:54:53;;;;;;;3.28;1.10;;;;;;;19.59;65.22;100120.31;5048247;28;20048;-43
2023/11/11 02:57:18;;;;;;;4.28;1.10;;;;;;;19.58;64.92;100119.50;5044147;28;20041;-44
2023/11/11 02:59:44;;;;;;;1.35;1.10;;;;;;;19.58;64.52;100116.75;5055930;28;20030;-43
2023/11/11 03:02:13;;;;;;;3.53;1.73;;;;;;;19.58;64.94;100119.50;5039507;28;20393;-36
2023/11/11 03:04:38;;;;;;;3.17;1.42;;;;;;;19.55;64.65;100120.13;5038582;28;20131;-37
2023/11/11 03:07:04;;;;;;;2.38;1.10;;;;;;;19.54;64.53;100123.97;5059622;28;20119;-41
2023/11/11 03:09:31;;;;;;;4.32;1.52;;;;;;;19.52;64.86;100127.03;5056608;28;20032;-43
2023/11/11 03:11:56;;;;;;;1.88;1.05;;;;;;;19.51;64.22;100125.41;5045412;28;20100;-44
2023/11/11 03:14:25;;;;;;;3.67;1.35;;;;;;;19.48;64.62;100139.75;5048867;28;20436;-43
2023/11/11 03:16:51;;;;;;;2.75;1.20;;;;;;;19.49;64.45;100124.91;5045285;28;20025;-43
2023/11/11 03:19:16;;;;;;;2.42;1.20;;;;;;;19.49;64.77;100132.34;5039141;28;20056;-44
2023/11/11 03:21:42;;;;;;;2.67;1.35;;;;;;;19.48;64.94;100138.94;5053081;28;20033;-37
2023/11/11 03:24:07;;;;;;;3.28;1.40;;;;;;;19.46;64.80;100142.00;5046350;28;20040;-37
2023/11/11 03:26:33;;;;;;;4.53;1.88;;;;;;;19.47;64.96;100148.31;5049118;28;20249;-37
2023/11/11 03:28:58;;;;;;;2.63;1.30;;;;;;;19.46;64.76;100152.16;5050451;28;20032;-37
2023/11/11 03:31:24;;;;;;;2.38;1.17;;;;;;;19.44;65.08;100152.47;5038659;28;20028;-37
2023/11/11 03:33:49;;;;;;;2.10;1.27;;;;;;;19.44;64.90;100159.91;5059595;28;20491;-42
2023/11/11 03:36:15;;;;;;;2.97;1.20;;;;;;;19.43;64.83;100153.59;5060163;28;20021;-44
2023/11/11 03:38:40;;;;;;;3.35;1.20;;;;;;;19.42;64.95;100151.16;5058918;28;20033;-44
2023/11/11 03:41:07;;;;;;;2.85;1.30;;;;;;;19.41;64.95;100158.56;5096347;28;20058;-43
2023/11/11 03:43:32;;;;;;;3.25;1.40;;;;;;;19.41;65.04;100169.56;5035966;28;20029;-43
2023/11/11 03:45:59;;;;;;;3.38;1.20;;;;;;;19.40;64.98;100162.44;5051925;28;20035;-37
2023/11/11 03:48:24;;;;;;;3.10;1.25;;;;;;;19.39;65.09;100160.81;5053655;28;20121;-43
2023/11/11 03:50:50;;;;;;;4.75;1.10;;;;;;;19.38;64.79;100162.72;5037593;28;20108;-37
2023/11/11 03:53:15;;;;;;;2.08;1.13;;;;;;;19.37;64.85;100161.13;5052636;28;20333;-37
2023/11/11 03:55:41;;;;;;;4.38;1.30;;;;;;;19.36;64.68;100167.72;5048661;28;20072;-36
2023/11/11 03:58:07;;;;;;;2.67;1.15;;;;;;;19.35;64.89;100165.28;5036526;28;20501;-35
2023/11/11 04:00:32;;;;;;;2.03;1.10;;;;;;;19.34;64.94;100174.66;5038953;28;20059;-36
2023/11/11 04:02:57;;;;;;;2.00;1.20;;;;;;;19.33;65.08;100171.06;5038099;28;20044;-37
2023/11/11 04:05:23;;;;;;;2.17;1.27;;;;;;;19.32;64.82;100174.94;5046904;28;20032;-37
2023/11/11 04:07:49;;;;;;;3.33;1.30;;;;;;;19.33;64.79;100186.75;5033189;28;20017;-36
2023/11/11 04:10:17;;;;;;;2.38;1.10;;;;;;;19.32;64.81;100176.88;5048666;28;20082;-36
2023/11/11 04:12:43;;;;;;;2.63;1.13;;;;;;;19.32;64.91;100185.13;5036928;28;20033;-35
2023/11/11 04:15:09;;;;;;;4.18;1.42;;;;;;;19.31;65.07;100189.81;5034212;28;20112;-42
2023/11/11 04:17:38;;;;;;;2.72;1.40;;;;;;;19.30;64.76;100190.09;5033684;28;20453;-42
2023/11/11 04:20:04;;;;;;;1.50;1.05;;;;;;;19.29;64.68;100189.28;5051204;28;20461;-42
2023/11/11 04:22:29;;;;;;;2.40;1.10;;;;;;;19.28;65.05;100189.59;5048250;28;20036;-42
2023/11/11 04:24:55;;;;;;;3.33;1.30;;;;;;;19.26;65.13;100187.13;5038936;28;20013;-43
2023/11/11 04:27:20;;;;;;;3.65;1.33;;;;;;;19.28;64.77;100195.91;5047773;28;20040;-42
2023/11/11 04:29:45;;;;;;;2.67;1.20;;;;;;;19.27;64.68;100197.00;5032686;28;20481;-44
2023/11/11 04:32:11;;;;;;;1.38;0.95;;;;;;;19.25;64.79;100193.72;5032422;28;20052;-36
2023/11/11 04:34:36;;;;;;;2.35;1.40;;;;;;;19.24;64.95;100192.13;5057605;28;20032;-43
2023/11/11 04:37:02;;;;;;;4.78;1.50;;;;;;;19.24;64.91;100192.13;5040510;28;20163;-36
2023/11/11 04:39:28;;;;;;;3.72;1.58;;;;;;;19.25;65.06;100193.72;5025660;28;20717;-36
2023/11/11 04:41:54;;;;;;;5.43;1.27;;;;;;;19.23;64.72;100199.53;5032254;28;20025;-37
2023/11/11 04:44:19;;;;;;;1.60;1.40;;;;;;;19.23;64.86;100199.53;5042437;28;20175;-43
2023/11/11 04:46:45;;;;;;;3.22;1.40;;;;;;;19.22;64.83;100200.66;5029514;28;20610;-43
2023/11/11 04:49:11;;;;;;;3.53;1.25;;;;;;;19.21;64.73;100211.94;5037949;28;20480;-37
2023/11/11 04:51:36;;;;;;;3.08;1.40;;;;;;;19.20;64.59;100205.66;5062627;28;20751;-37
2023/11/11 04:54:01;;;;;;;2.50;1.30;;;;;;;19.20;64.91;100208.41;5038669;28;20032;-37
2023/11/11 04:56:30;;;;;;;3.15;1.38;;;;;;;19.17;65.04;100222.72;5060258;28;20041;-37
2023/11/11 04:58:55;;;;;;;7.00;1.73;;;;;;;19.18;64.80;100235.34;5061577;28;20047;-37
2023/11/11 05:01:21;;;;;;;2.03;1.10;;;;;;;19.17;65.06;100243.88;5057513;28;20460;-37
2023/11/11 05:03:48;;;;;;;2.13;1.30;;;;;;;19.17;64.90;100239.19;5051868;28;20033;-42
2023/11/11 05:06:15;;;;;;;2.90;1.27;;;;;;;19.15;65.14;100237.88;5047895;28;20047;-36
2023/11/11 05:08:40;;;;;;;5.22;1.50;;;;;;;19.15;65.02;100235.94;5056530;28;20045;-36
2023/11/11 05:11:06;;;;;;;2.40;1.33;;;;;;;19.15;65.13;100235.13;5052371;28;20036;-35
2023/11/11 05:13:33;;;;;;;2.38;1.48;;;;;;;19.13;65.17;100234.59;5039422;28;20113;-35
2023/11/11 05:16:10;;;;;;;2.25;1.33;;;;;;;19.13;65.00;100235.44;5062169;28;20075;-36
2023/11/11 05:18:36;;;;;;;4.10;1.70;;;;;;;19.12;65.04;100233.78;5041130;28;20033;-36
2023/11/11 05:21:02;;;;;;;2.35;1.30;;;;;;;19.11;65.14;100223.13;5047504;28;20513;-36
2023/11/11 05:23:27;;;;;;;3.55;1.55;;;;;;;19.12;64.86;100238.47;5046138;28;20021;-37
2023/11/11 05:25:54;;;;;;;2.35;1.20;;;;;;;19.11;65.12;100239.59;5053919;28;20031;-36
2023/11/11 05:28:20;;;;;;;3.00;1.35;;;;;;;19.10;64.86;100243.44;5053711;28;20040;-37
2023/11/11 05:30:45;;;;;;;4.65;1.50;;;;;;;19.09;65.01;100250.84;5042817;28;20048;-37
2023/11/11 05:33:10;;;;;;;2.47;1.20;;;;;;;19.07;64.72;100248.41;5050750;28;20696;-36
2023/11/11 05:35:37;;;;;;;2.13;1.20;;;;;;;19.07;64.89;100253.09;5051656;28;20071;-36
2023/11/11 05:38:02;;;;;;;2.22;1.20;;;;;;;19.05;64.93;100256.13;5064859;28;20016;-35
2023/11/11 05:40:29;;;;;;;4.28;1.42;;;;;;;19.05;64.74;100252.56;5057158;28;20503;-36
2023/11/11 05:42:56;;;;;;;3.72;1.15;;;;;;;19.04;64.90;100254.53;5054718;28;20046;-36
2023/11/11 05:45:21;;;;;;;3.85;1.35;;;;;;;19.03;64.89;100258.38;5049606;28;20029;-36
2023/11/11 05:47:47;;;;;;;4.13;1.45;;;;;;;19.03;64.73;100254.78;5059335;28;20086;-37
2023/11/11 05:50:13;;;;;;;3.80;1.40;;;;;;;19.05;64.73;100258.06;5051777;28;20499;-35
2023/11/11 05:52:38;;;;;;;4.40;1.20;;;;;;;19.11;64.76;100256.06;5047127;28;20036;-42
2023/11/11 05:55:06;;;;;;;1.48;1.08;;;;;;;19.16;64.54;100256.78;5052027;28;20439;-42
2023/11/11 05:57:31;;;;;;;2.05;1.17;;;;;;;19.24;64.61;100264.34;5041704;28;20102;-43
2023/11/11 05:59:57;;;;;;;1.77;1.00;;;;;;;19.33;64.37;100258.19;5056848;28;20074;-42
2023/11/11 06:02:22;;;;;;;2.35;1.10;;;;;;;19.42;63.93;100261.06;5062638;28;20031;-43
2023/11/11 06:04:48;;;;;;;2.47;1.20;;;;;;;19.51;63.93;100259.25;5057820;28;20055;-42
2023/11/11 06:07:15;;;;;;;1.75;1.30;;;;;;;19.62;63.77;100271.72;5046074;28;20037;-42
2023/11/11 06:09:40;;;;;;;1.60;1.17;;;;;;;19.75;63.73;100267.34;5040848;28;20338;-42
2023/11/11 06:12:06;;;;;;;3.70;1.23;;;;;;;19.87;63.45;100270.47;5052082;28;20017;-43
2023/11/11 06:14:31;;;;;;;1.48;1.00;;;;;;;19.98;63.47;100268.34;5050569;28;20274;-43
2023/11/11 06:16:57;;;;;;;4.05;1.23;;;;;;;20.13;63.43;100271.91;5064881;28;20032;-42
2023/11/11 06:19:24;;;;;;;1.92;1.10;;;;;;;20.25;63.28;100274.19;5057112;28;20024;-43
2023/11/11 06:21:49;;;;;;;2.30;1.30;;;;;;;20.37;63.02;100277.22;5054817;28;20070;-43
2023/11/11 06:24:15;;;;;;;2.30;1.13;;;;;;;20.49;62.99;100274.78;5057655;28;20037;-43
2023/11/11 06:26:40;;;;;;;2.55;1.10;;;;;;;20.60;62.49;100261.59;5056028;28;20021;-43
2023/11/11 06:29:09;;;;;;;2.42;1.30;;;;;;;20.72;62.24;100276.81;5049241;28;20039;-43
2023/11/11 06:31:35;;;;;;;2.05;1.10;;;;;;;20.82;62.44;100273.81;5052129;28;20549;-42
2023/11/11 06:34:01;;;;;;;1.60;1.10;;;;;;;20.92;62.25;100275.53;5062407;28;20032;-43
2023/11/11 06:36:26;;;;;;;1.23;1.08;;;;;;;21.00;61.82;100272.88;5063166;28;20362;-42
2023/11/11 06:38:51;;;;;;;2.10;1.20;;;;;;;21.11;61.56;100286.41;5044861;28;20029;-42
2023/11/11 06:41:18;;;;;;;2.20;1.33;;;;;;;21.19;61.97;100296.69;5089994;28;20443;-42
2023/11/11 06:43:44;;;;;;;3.10;1.30;;;;;;;21.26;61.49;100287.97;5053054;28;20094;-42
2023/11/11 06:46:10;;;;;;;4.97;1.40;;;;;;;21.32;61.51;100290.31;5047566;28;20521;-43
2023/11/11 06:48:35;;;;;;;2.67;1.35;;;;;;;21.41;61.63;100287.59;5041378;28;20030;-36
2023/11/11 06:51:01;;;;;;;2.67;1.30;;;;;;;21.49;61.44;100294.31;5055575;28;20035;-43
2023/11/11 06:53:26;;;;;;;3.72;1.38;;;;;;;21.55;61.35;100298.56;5052917;28;20473;-43
2023/11/11 06:55:52;;;;;;;3.35;1.45;;;;;;;21.61;61.02;100297.34;5054978;28;20034;-43
2023/11/11 06:58:17;;;;;;;2.25;1.42;;;;;;;21.66;60.93;100301.91;5040765;28;20099;-43
2023/11/11 07:00:42;;;;;;;3.50;1.50;;;;;;;21.71;61.04;100304.53;5042549;28;20293;-43
2023/11/11 07:03:11;;;;;;;2.10;1.40;;;;;;;21.77;60.88;100302.47;5039822;28;20408;-45
2023/11/11 07:05:36;;;;;;;3.35;1.40;;;;;;;21.81;60.72;100300.69;5036843;28;20017;-43
2023/11/11 07:08:05;;;;;;;4.13;1.50;;;;;;;21.86;60.97;100310.78;5037428;28;20389;-43
2023/11/11 07:10:34;;;;;;;4.13;1.60;;;;;;;21.89;60.73;100305.47;5032513;28;20029;-43
2023/11/11 07:13:00;;;;;;;3.38;1.58;;;;;;;21.93;60.52;100306.44;5040108;28;20028;-37
2023/11/11 07:15:26;;;;;;;4.07;1.67;;;;;;;21.97;60.76;100314.91;5046385;28;20029;-37
2023/11/11 07:17:52;;;;;;;3.42;1.58;;;;;;;22.01;60.47;100326.94;5045164;28;20055;-37
2023/11/11 07:20:19;;;;;;;2.17;1.25;;;;;;;22.03;60.55;100329.38;5039096;28;20408;-37
2023/11/11 07:22:55;;;;;;;2.95;1.45;;;;;;;22.02;60.85;100334.06;5046225;28;20117;-37
2023/11/11 07:25:23;;;;;;;2.80;1.38;;;;;;;22.01;60.74;100326.94;5068221;28;20437;-37
2023/11/11 07:27:48;;;;;;;3.95;1.65;;;;;;;22.02;60.26;100336.03;5040370;28;20129;-37
2023/11/11 07:30:14;;;;;;;3.33;1.65;;;;;;;21.99;60.40;100345.75;5050625;28;20112;-37
2023/11/11 07:32:40;;;;;;;3.67;1.58;;;;;;;21.96;60.41;100346.38;5047686;28;20033;-36
2023/11/11 07:35:07;;;;;;;1.98;1.30;;;;;;;21.93;60.63;100358.06;5038217;28;20461;-37
2023/11/11 07:37:32;;;;;;;3.03;1.50;;;;;;;21.86;60.87;100355.72;5049932;28;20033;-36
2023/11/11 07:39:59;;;;;;;3.30;1.60;;;;;;;21.82;60.75;100360.25;5051847;28;20443;-36
2023/11/11 07:42:24;;;;;;;3.70;1.55;;;;;;;21.77;60.97;100358.44;5042896;28;20037;-37
2023/11/11 07:44:49;;;;;;;4.13;1.50;;;;;;;21.74;61.04;100355.47;5056462;28;20029;-43
2023/11/11 07:47:15;;;;;;;3.95;1.50;;;;;;;21.70;60.74;100357.25;5049297;28;20062;-45
2023/11/11 07:49:41;;;;;;;2.38;1.67;;;;;;;21.65;60.69;100355.44;5041725;28;20024;-44
2023/11/11 07:52:06;;;;;;;6.28;1.75;;;;;;;21.62;61.16;100365.16;5051144;28;20024;-44
2023/11/11 07:54:33;;;;;;;4.05;1.70;;;;;;;21.57;61.01;100357.00;5039475;28;20052;-43
2023/11/11 07:56:58;;;;;;;3.63;1.67;;;;;;;21.53;60.90;100358.72;5050277;28;20121;-42
2023/11/11 07:59:24;;;;;;;3.00;1.50;;;;;;;21.50;60.74;100356.59;5052827;28;20057;-37
2023/11/11 08:01:50;;;;;;;3.42;1.80;;;;;;;21.44;61.09;100366.91;5050091;28;20033;-37
2023/11/11 08:04:15;;;;;;;2.97;1.65;;;;;;;21.41;61.21;100363.97;5042544;28;20036;-36
2023/11/11 08:06:43;;;;;;;3.55;1.92;;;;;;;21.36;61.21;100364.09;5038034;28;20026;-36
2023/11/11 08:09:10;;;;;;;2.05;1.30;;;;;;;21.30;61.55;100363.41;5045067;28;20027;-44
2023/11/11 08:11:36;;;;;;;2.55;1.40;;;;;;;21.26;61.71;100368.72;5050290;28;20030;-44
2023/11/11 08:14:02;;;;;;;5.28;1.77;;;;;;;21.25;61.42;100374.53;5048806;28;20082;-43
2023/11/11 08:16:29;;;;;;;2.20;1.38;;;;;;;21.21;61.71;100377.09;5061768;28;20234;-43
2023/11/11 08:18:54;;;;;;;3.40;1.50;;;;;;;21.18;61.50;100380.47;5054935;28;20374;-44
2023/11/11 08:21:25;;;;;;;2.30;1.50;;;;;;;21.13;61.61;100384.16;5045997;28;20055;-44
2023/11/11 08:23:50;;;;;;;3.05;1.30;;;;;;;21.10;61.96;100389.47;5057252;28;20029;-44
2023/11/11 08:26:16;;;;;;;2.38;1.30;;;;;;;21.06;61.72;100393.97;5061065;28;20020;-43
2023/11/11 08:28:41;;;;;;;4.30;1.52;;;;;;;21.02;62.14;100396.53;5051555;28;20029;-44
2023/11/11 08:31:07;;;;;;;2.78;1.50;;;;;;;20.97;62.17;100404.91;5044002;28;20028;-44
2023/11/11 08:33:32;;;;;;;4.82;1.38;;;;;;;20.93;62.07;100404.69;5047563;28;20029;-43
2023/11/11 08:35:58;;;;;;;3.65;1.52;;;;;;;20.89;62.30;100413.88;5056499;28;20061;-42
2023/11/11 08:38:24;;;;;;;5.38;1.75;;;;;;;20.85;62.16;100413.69;5066928;28;20029;-43
2023/11/11 08:40:50;;;;;;;2.60;1.40;;;;;;;20.83;62.51;100421.41;5057543;28;20033;-43
2023/11/11 08:43:15;;;;;;;3.78;1.33;;;;;;;20.79;62.24;100415.69;5055606;28;20391;-43
2023/11/11 08:45:42;;;;;;;4.00;1.63;;;;;;;20.77;62.62;100414.38;5048617;28;20464;-43
2023/11/11 08:48:07;;;;;;;3.05;1.60;;;;;;;20.73;62.44;100416.13;5052133;28;20032;-43
2023/11/11 08:50:33;;;;;;;1.98;1.40;;;;;;;20.70;62.49;100417.53;5046323;28;20024;-43
2023/11/11 08:52:59;;;;;;;2.75;1.50;;;;;;;20.67;62.39;100421.72;5054968;28;20075;-42
2023/11/11 08:55:25;;;;;;;6.18;1.50;;;;;;;20.64;62.69;100416.00;5049669;28;20121;-42
2023/11/11 08:57:50;;;;;;;3.45;1.70;;;;;;;20.61;62.41;100416.59;5064590;28;20060;-43
2023/11/11 09:00:16;;;;;;;2.47;1.60;;;;;;;20.59;62.71;100421.56;5056577;28;20584;-43
2023/11/11 09:02:41;;;;;;;4.32;1.55;;;;;;;20.56;62.89;100419.44;5051590;28;20036;-42
2023/11/11 09:05:07;;;;;;;3.08;1.50;;;;;;;20.53;62.46;100431.88;5059284;28;20017;-42
2023/11/11 09:07:34;;;;;;;4.25;1.70;;;;;;;20.50;62.65;100436.06;5052084;28;20075;-41
2023/11/11 09:10:00;;;;;;;4.75;1.40;;;;;;;20.48;62.63;100437.50;5043493;28;20028;-42
2023/11/11 09:12:26;;;;;;;2.95;1.33;;;;;;;20.46;62.69;100440.53;5057385;28;20037;-42
2023/11/11 09:14:52;;;;;;;3.97;1.75;;;;;;;20.42;62.84;100425.75;5046269;28;20024;-36
2023/11/11 09:17:19;;;;;;;4.60;1.63;;;;;;;20.41;62.67;100424.09;5054345;28;20032;-36
2023/11/11 09:19:45;;;;;;;4.93;1.63;;;;;;;20.39;62.95;100423.59;5054283;28;20037;-37
2023/11/11 09:22:10;;;;;;;2.25;1.10;;;;;;;20.37;62.99;100425.84;5055848;28;20032;-37
2023/11/11 09:24:36;;;;;;;2.35;1.20;;;;;;;20.35;62.99;100428.06;5053101;28;20369;-36
2023/11/11 09:27:01;;;;;;;3.10;1.60;;;;;;;20.33;63.09;100424.81;5051199;28;20028;-36
2023/11/11 09:29:27;;;;;;;3.03;1.60;;;;;;;20.31;62.80;100436.13;5056260;28;20380;-37
2023/11/11 09:31:53;;;;;;;2.42;1.52;;;;;;;20.29;63.22;100432.84;5050536;28;20025;-37
2023/11/11 09:34:18;;;;;;;3.60;1.58;;;;;;;20.29;63.09;100430.09;5042752;28;20531;-43
2023/11/11 09:36:44;;;;;;;2.30;1.33;;;;;;;20.27;62.73;100429.59;5055860;28;20460;-36
2023/11/11 09:39:11;;;;;;;3.05;1.30;;;;;;;20.26;63.03;100436.22;5054302;28;20511;-43
2023/11/11 09:41:38;;;;;;;2.67;1.27;;;;;;;20.25;63.00;100434.56;5059426;28;20025;-43
2023/11/11 09:44:03;;;;;;;2.47;1.35;;;;;;;20.25;62.93;100437.31;5061149;28;20039;-41
2023/11/11 09:46:56;;;;;;;15.93;2.08;;;;;;;20.25;63.40;100442.03;5044102;28;20018;-41
2023/11/11 09:49:22;;;;;;;25.27;2.63;;;;;;;20.31;64.35;100435.31;5029621;28;20037;-42
2023/11/11 09:51:48;;;;;;;17.85;1.63;;;;;;;20.36;64.37;100437.97;5040120;28;20025;-36
2023/11/11 09:54:15;;;;;;;25.85;1.63;;;;;;;20.41;64.19;100440.63;5027752;28;20037;-35
2023/11/11 09:56:43;;;;;;;8.60;1.65;;;;;;;20.45;64.49;100446.34;5051645;28;20037;-34
2023/11/11 09:59:12;;;;;;;10.75;1.30;;;;;;;20.49;63.94;100436.34;5050197;28;20036;-37
2023/11/11 10:01:38;;;;;;;3.80;1.70;;;;;;;20.55;64.14;100437.91;5046676;28;20382;-35
2023/11/11 10:04:03;;;;;;;3.42;1.40;;;;;;;20.58;63.78;100444.75;5048436;28;20090;-36
2023/11/11 10:06:29;;;;;;;3.15;1.33;;;;;;;20.60;63.86;100439.72;5044059;28;20029;-34
2023/11/11 10:08:55;;;;;;;1.33;1.00;;;;;;;20.63;63.13;100445.44;5051457;28;20025;-40
2023/11/11 10:11:20;;;;;;;1.23;1.10;;;;;;;20.67;62.91;100443.72;5048696;28;20123;-40
2023/11/11 10:13:46;;;;;;;2.83;1.05;;;;;;;20.69;62.54;100444.22;5037887;28;20056;-41
2023/11/11 10:16:13;;;;;;;2.88;1.15;;;;;;;20.73;62.70;100446.41;5047102;28;20415;-38
2023/11/11 10:18:40;;;;;;;3.10;1.02;;;;;;;20.77;62.63;100450.19;5040522;28;20029;-43
2023/11/11 10:21:06;;;;;;;2.33;1.27;;;;;;;20.81;62.39;100449.28;5032616;28;20045;-43
2023/11/11 10:23:32;;;;;;;2.30;1.08;;;;;;;20.86;62.56;100456.63;5048983;28;20460;-45
2023/11/11 10:25:58;;;;;;;7.07;1.63;;;;;;;20.93;62.36;100461.72;5038644;28;20031;-45
2023/11/11 10:28:24;;;;;;;11.57;1.63;;;;;;;20.99;61.99;100466.00;5044301;28;20032;-43
2023/11/11 10:30:53;;;;;;;4.32;1.33;;;;;;;21.05;61.94;100475.00;5036363;28;20056;-41
2023/11/11 10:33:18;;;;;;;2.30;1.10;;;;;;;21.09;61.77;100479.59;5038606;28;20674;-50
2023/11/11 10:35:46;;;;;;;2.13;1.17;;;;;;;21.13;61.62;100480.59;5038902;28;20036;-45
2023/11/11 10:38:11;;;;;;;4.50;1.02;;;;;;;21.18;61.23;100482.44;5044666;28;20083;-42
2023/11/11 10:40:37;;;;;;;6.82;1.35;;;;;;;21.22;61.14;100477.13;5031445;28;20032;-46
2023/11/11 10:43:03;;;;;;;5.30;1.42;;;;;;;21.26;61.31;100489.16;5041324;28;20357;-37
2023/11/11 10:45:30;;;;;;;7.18;1.60;;;;;;;21.31;61.33;100484.38;5039649;28;20034;-39
2023/11/11 10:47:56;;;;;;;3.70;1.40;;;;;;;21.37;61.47;100495.28;5039734;28;20037;-38
2023/11/11 10:50:22;;;;;;;2.63;1.20;;;;;;;21.39;61.09;100487.53;5053867;28;20032;-38
2023/11/11 10:52:48;;;;;;;1.90;1.02;;;;;;;21.41;60.71;100486.09;5036175;28;20039;-38
2023/11/11 10:55:14;;;;;;;6.50;1.60;;;;;;;21.45;61.12;100483.53;5028440;28;20053;-39
2023/11/11 10:57:42;;;;;;;6.03;1.38;;;;;;;21.44;61.00;100479.13;5055360;28;20071;-39
2023/11/11 11:00:19;;;;;;;4.43;1.27;;;;;;;21.44;60.89;100473.63;5047214;28;20029;-42
2023/11/11 11:02:49;;;;;;;13.15;1.48;;;;;;;21.43;61.26;100475.53;5032559;28;20057;-40
2023/11/11 11:05:25;;;;;;;4.25;1.40;;;;;;;21.43;61.05;100475.53;5077437;28;20492;-39
2023/11/11 11:07:57;;;;;;;2.80;1.50;;;;;;;21.42;60.99;100470.34;5037502;28;20033;-38
2023/11/11 11:10:28;;;;;;;9.95;1.27;;;;;;;21.41;61.04;100475.06;5046628;28;20025;-41
2023/11/11 11:13:08;;;;;;;5.88;1.40;;;;;;;21.40;60.59;100473.44;5029489;28;20025;-45
2023/11/11 11:15:40;;;;;;;21.02;1.85;;;;;;;21.41;60.46;100474.22;5055312;28;20033;-47
2023/11/11 11:18:09;;;;;;;2.08;1.13;;;;;;;21.39;60.99;100473.75;5053719;28;20093;-47
2023/11/11 11:20:34;;;;;;;5.28;1.40;;;;;;;21.36;61.52;100477.94;5056914;28;20028;-42